createdAt,value
2022-11-09T00:01:02.448Z,79.46
2022-11-09T00:03:31.859Z,78.49
2022-11-09T00:06:00.899Z,79.61
2022-11-09T00:08:29.399Z,79.74
2022-11-09T00:11:03.513Z,79.38
2022-11-09T00:13:31.326Z,79.27
2022-11-09T00:15:59.795Z,79.46
2022-11-09T00:18:27.582Z,79.72
2022-11-09T00:20:57.116Z,79.33
2022-11-09T00:23:24.966Z,79.23
2022-11-09T00:25:52.777Z,79.85
2022-11-09T00:28:20.587Z,79.60
2022-11-09T00:30:48.520Z,79.74
2022-11-09T00:33:17.725Z,79.71
2022-11-09T00:35:45.733Z,80.28
2022-11-09T00:38:14.875Z,80.23
2022-11-09T00:40:42.704Z,79.88
2022-11-09T00:43:10.653Z,79.95
2022-11-09T00:45:40.692Z,80.25
2022-11-09T00:48:08.672Z,80.87
2022-11-09T00:50:36.867Z,80.24
2022-11-09T00:53:04.922Z,80.21
2022-11-09T00:55:34.151Z,80.10
2022-11-09T00:58:01.962Z,80.19
2022-11-09T01:00:29.880Z,79.73
2022-11-09T01:02:57.726Z,80.15
2022-11-09T01:05:26.481Z,80.20
2022-11-09T01:07:54.324Z,80.09
2022-11-09T01:10:24.124Z,80.81
2022-11-09T01:12:56.194Z,80.38
2022-11-09T01:15:24.208Z,80.21
2022-11-09T01:17:52.070Z,80.77
2022-11-09T01:20:19.916Z,80.97
2022-11-09T01:22:47.719Z,80.04
2022-11-09T01:25:15.643Z,79.90
2022-11-09T01:27:43.433Z,80.19
2022-11-09T01:30:14.076Z,80.18
2022-11-09T01:32:41.863Z,79.69
2022-11-09T01:35:10.307Z,79.29
2022-11-09T01:37:38.155Z,79.81
2022-11-09T01:40:07.241Z,79.41
2022-11-09T01:42:37.275Z,79.88
2022-11-09T01:45:22.940Z,78.60
2022-11-09T01:47:56.820Z,79.48
2022-11-09T01:50:32.787Z,79.15
2022-11-09T01:53:02.953Z,79.29
2022-11-09T01:55:31.634Z,78.64
2022-11-09T01:58:04.264Z,79.56
2022-11-09T02:00:35.231Z,78.94
2022-11-09T02:03:08.252Z,78.76
2022-11-09T02:05:39.662Z,78.68
2022-11-09T02:08:09.747Z,79.31
2022-11-09T02:10:45.163Z,78.49
2022-11-09T02:13:15.757Z,78.79
2022-11-09T02:15:46.090Z,78.22
2022-11-09T02:18:15.336Z,78.33
2022-11-09T02:20:50.283Z,78.22
2022-11-09T02:23:19.375Z,78.63
2022-11-09T02:25:52.112Z,77.80
2022-11-09T02:28:20.919Z,78.69
2022-11-09T02:30:53.264Z,78.33
2022-11-09T02:33:21.674Z,78.05
2022-11-09T02:35:51.929Z,77.74
2022-11-09T02:38:19.872Z,78.05
2022-11-09T02:40:52.103Z,77.50
2022-11-09T02:43:21.124Z,78.14
2022-11-09T02:45:49.498Z,78.21
2022-11-09T02:48:17.890Z,77.98
2022-11-09T02:50:45.724Z,77.31
2022-11-09T02:53:14.960Z,77.06
2022-11-09T02:55:45.699Z,77.86
2022-11-09T02:58:14.555Z,77.27
2022-11-09T03:00:42.950Z,77.10
2022-11-09T03:03:13.617Z,77.01
2022-11-09T03:05:44.789Z,77.58
2022-11-09T03:08:15.542Z,77.17
2022-11-09T03:10:43.499Z,77.36
2022-11-09T03:13:11.624Z,76.84
2022-11-09T03:15:39.543Z,76.78
2022-11-09T03:18:09.039Z,76.75
2022-11-09T03:20:36.896Z,77.23
2022-11-09T03:23:04.751Z,76.83
2022-11-09T03:25:36.639Z,76.87
2022-11-09T03:28:07.500Z,77.52
2022-11-09T03:30:36.105Z,77.55
2022-11-09T03:33:09.918Z,76.91
2022-11-09T03:35:38.725Z,76.69
2022-11-09T03:38:07.570Z,77.37
2022-11-09T03:40:37.857Z,77.42
2022-11-09T03:43:06.045Z,76.98
2022-11-09T03:45:34.344Z,76.33
2022-11-09T03:48:02.243Z,77.04
2022-11-09T03:50:31.517Z,76.92
2022-11-09T03:52:59.963Z,76.22
2022-11-09T03:55:28.579Z,76.70
2022-11-09T03:57:57.716Z,76.55
2022-11-09T04:00:26.457Z,76.04
2022-11-09T04:02:54.362Z,75.64
2022-11-09T04:05:23.006Z,76.82
2022-11-09T04:07:52.228Z,75.89
2022-11-09T04:10:20.568Z,75.98
2022-11-09T04:12:48.632Z,75.82
2022-11-09T04:15:18.295Z,75.82
2022-11-09T04:17:46.120Z,76.27
2022-11-09T04:20:14.164Z,76.26
2022-11-09T04:22:41.976Z,75.75
2022-11-09T04:25:10.071Z,76.63
2022-11-09T04:27:37.879Z,76.00
2022-11-09T04:30:06.789Z,76.16
2022-11-09T04:32:35.943Z,76.05
2022-11-09T04:35:04.064Z,76.00
2022-11-09T04:37:31.902Z,76.16
2022-11-09T04:39:59.751Z,76.64
2022-11-09T04:42:27.578Z,76.02
2022-11-09T04:44:55.408Z,75.92
2022-11-09T04:47:23.223Z,76.80
2022-11-09T04:49:52.620Z,76.71
2022-11-09T04:52:20.447Z,76.16
2022-11-09T04:54:48.244Z,76.97
2022-11-09T04:57:16.302Z,77.06
2022-11-09T04:59:44.097Z,76.72
2022-11-09T05:02:11.912Z,77.20
2022-11-09T05:04:39.864Z,77.32
2022-11-09T05:07:09.071Z,76.83
2022-11-09T05:09:36.968Z,76.72
2022-11-09T05:12:05.051Z,76.52
2022-11-09T05:14:32.855Z,77.62
2022-11-09T05:17:00.706Z,76.78
2022-11-09T05:19:28.562Z,76.70
2022-11-09T05:21:56.364Z,76.79
2022-11-09T05:24:24.553Z,76.31
2022-11-09T05:26:53.587Z,76.66
2022-11-09T05:29:21.395Z,76.36
2022-11-09T05:31:52.216Z,76.48
2022-11-09T05:34:20.439Z,76.39
2022-11-09T05:36:48.259Z,76.03
2022-11-09T05:39:16.099Z,76.82
2022-11-09T05:41:45.260Z,75.69
2022-11-09T05:44:13.067Z,76.59
2022-11-09T05:46:40.860Z,76.29
2022-11-09T05:49:08.750Z,76.57
2022-11-09T05:51:36.545Z,77.07
2022-11-09T05:54:04.401Z,76.87
2022-11-09T05:56:32.216Z,76.37
2022-11-09T05:59:01.399Z,76.12
2022-11-09T06:01:29.249Z,76.99
2022-11-09T06:03:57.096Z,76.30
2022-11-09T06:06:24.958Z,76.82
2022-11-09T06:08:52.832Z,76.66
2022-11-09T06:11:23.863Z,76.32
2022-11-09T06:13:53.242Z,76.48
2022-11-09T06:16:22.778Z,76.13
2022-11-09T06:18:50.784Z,75.88
2022-11-09T06:21:18.993Z,76.30
2022-11-09T06:23:46.842Z,76.17
2022-11-09T06:26:14.707Z,76.37
2022-11-09T06:28:42.923Z,76.32
2022-11-09T06:31:13.583Z,75.59
2022-11-09T06:33:42.939Z,77.00
2022-11-09T06:36:11.644Z,76.54
2022-11-09T06:38:39.612Z,76.52
2022-11-09T06:41:07.866Z,76.96
2022-11-09T06:43:35.674Z,76.11
2022-11-09T06:46:04.798Z,75.78
2022-11-09T06:48:32.718Z,75.96
2022-11-09T06:51:02.389Z,76.01
2022-11-09T06:53:31.146Z,76.33
2022-11-09T06:55:59.804Z,75.53
2022-11-09T06:58:28.277Z,76.02
2022-11-09T07:00:56.663Z,76.70
2022-11-09T07:03:25.328Z,75.61
2022-11-09T07:05:53.821Z,76.57
2022-11-09T07:08:22.991Z,75.79
2022-11-09T07:10:50.921Z,75.84
2022-11-09T07:13:19.038Z,75.89
2022-11-09T07:15:47.129Z,76.95
2022-11-09T07:18:14.956Z,76.98
2022-11-09T07:20:42.815Z,76.37
2022-11-09T07:23:10.616Z,77.19
2022-11-09T07:25:39.784Z,77.43
2022-11-09T07:28:09.464Z,76.90
2022-11-09T07:30:37.914Z,77.13
2022-11-09T07:33:12.298Z,76.42
2022-11-09T07:35:40.177Z,76.01
2022-11-09T07:38:08.503Z,75.75
2022-11-09T07:40:36.979Z,75.71
2022-11-09T07:43:07.289Z,76.05
2022-11-09T07:45:36.743Z,75.92
2022-11-09T07:48:06.515Z,75.89
2022-11-09T07:50:35.936Z,75.52
2022-11-09T07:53:05.515Z,75.54
2022-11-09T07:55:33.418Z,75.45
2022-11-09T07:58:03.296Z,75.53
2022-11-09T08:00:34.880Z,74.82
2022-11-09T08:03:02.983Z,75.29
2022-11-09T08:05:31.189Z,74.72
2022-11-09T08:08:00.483Z,75.19
2022-11-09T08:10:30.246Z,75.06
2022-11-09T08:13:00.150Z,74.74
2022-11-09T08:15:28.392Z,74.94
2022-11-09T08:18:00.882Z,74.92
2022-11-09T08:20:29.561Z,74.61
2022-11-09T08:23:03.360Z,74.71
2022-11-09T08:25:31.974Z,74.06
2022-11-09T08:28:00.016Z,74.35
2022-11-09T08:30:28.220Z,73.95
2022-11-09T08:32:57.425Z,74.33
2022-11-09T08:35:25.901Z,74.17
2022-11-09T08:37:54.835Z,73.86
2022-11-09T08:40:25.248Z,73.68
2022-11-09T08:42:53.753Z,73.33
2022-11-09T08:45:22.929Z,73.41
2022-11-09T08:48:00.047Z,73.45
2022-11-09T08:50:28.917Z,73.73
2022-11-09T08:52:57.302Z,73.56
2022-11-09T08:55:25.908Z,73.23
2022-11-09T08:57:55.345Z,72.99
2022-11-09T09:00:23.736Z,72.71
2022-11-09T09:02:51.656Z,72.98
2022-11-09T09:05:21.224Z,72.71
2022-11-09T09:07:49.079Z,73.13
2022-11-09T09:10:17.026Z,73.04
2022-11-09T09:12:44.879Z,72.83
2022-11-09T09:15:12.940Z,72.86
2022-11-09T09:17:40.767Z,72.74
2022-11-09T09:20:08.938Z,72.59
2022-11-09T09:22:38.272Z,72.95
2022-11-09T09:25:07.187Z,72.92
2022-11-09T09:27:35.111Z,72.98
2022-11-09T09:30:03.372Z,72.52
2022-11-09T09:32:31.234Z,72.86
2022-11-09T09:34:59.070Z,72.58
2022-11-09T09:37:26.878Z,72.76
2022-11-09T09:39:57.114Z,72.73
2022-11-09T09:42:31.781Z,72.30
2022-11-09T09:45:04.042Z,72.73
2022-11-09T09:47:45.324Z,72.26
2022-11-09T09:50:18.799Z,72.60
2022-11-09T09:53:17.566Z,72.36
2022-11-09T09:55:44.624Z,72.85
2022-11-09T09:58:14.839Z,72.66
2022-11-09T10:00:43.470Z,72.80
2022-11-09T10:03:18.393Z,72.92
2022-11-09T10:06:06.171Z,72.34
2022-11-09T10:08:43.940Z,72.33
2022-11-09T10:11:24.127Z,72.80
2022-11-09T10:14:04.909Z,72.63
2022-11-09T10:16:38.586Z,72.48
2022-11-09T10:19:25.380Z,72.47
2022-11-09T10:22:01.296Z,72.57
2022-11-09T10:24:58.648Z,72.39
2022-11-09T10:27:36.166Z,72.22
2022-11-09T10:30:13.117Z,72.04
2022-11-09T10:32:43.384Z,71.90
2022-11-09T10:35:19.582Z,72.14
2022-11-09T10:37:49.990Z,71.88
2022-11-09T10:40:22.596Z,71.80
2022-11-09T10:43:12.812Z,71.67
2022-11-09T10:46:04.775Z,71.43
2022-11-09T10:48:52.226Z,71.28
2022-11-09T10:51:41.559Z,70.98
2022-11-09T10:54:31.175Z,71.04
2022-11-09T10:57:19.222Z,70.67
2022-11-09T11:00:15.876Z,70.44
2022-11-09T11:03:12.383Z,70.25
2022-11-09T11:06:00.563Z,70.05
2022-11-09T11:08:49.296Z,69.94
2022-11-09T11:11:38.387Z,69.89
2022-11-09T11:14:31.184Z,69.83
2022-11-09T11:17:27.235Z,69.76
2022-11-09T11:20:28.485Z,69.97
2022-11-09T11:23:18.281Z,70.20
2022-11-09T11:26:21.654Z,70.11
2022-11-09T11:29:19.149Z,70.22
2022-11-09T11:32:11.024Z,70.17
2022-11-09T11:35:00.645Z,70.58
2022-11-09T11:37:59.732Z,70.87
2022-11-09T11:41:00.864Z,70.98
2022-11-09T11:43:55.276Z,71.34
2022-11-09T11:46:47.232Z,71.21
2022-11-09T11:49:56.297Z,71.09
2022-11-09T11:52:58.149Z,71.73
2022-11-09T11:56:11.234Z,71.22
2022-11-09T11:59:30.271Z,71.63
2022-11-09T12:02:35.384Z,71.73
2022-11-09T12:05:50.457Z,72.19
2022-11-09T12:09:08.278Z,71.73
2022-11-09T12:12:06.538Z,72.26
2022-11-09T12:15:03.660Z,72.15
2022-11-09T12:18:01.503Z,72.24
2022-11-09T12:20:58.467Z,72.38
2022-11-09T12:24:02.597Z,72.23
2022-11-09T12:27:18.312Z,72.54
2022-11-09T12:30:13.950Z,72.33
2022-11-09T12:33:04.407Z,72.30
2022-11-09T12:35:55.605Z,72.40
2022-11-09T12:38:50.019Z,72.14
2022-11-09T12:41:39.971Z,71.75
2022-11-09T12:44:30.353Z,71.86
2022-11-09T12:47:23.464Z,71.79
2022-11-09T12:50:14.829Z,71.51
2022-11-09T12:53:04.146Z,71.56
2022-11-09T12:55:56.385Z,71.97
2022-11-09T12:58:44.805Z,72.06
2022-11-09T13:01:50.746Z,71.86
2022-11-09T13:04:37.547Z,71.54
2022-11-09T13:07:49.690Z,71.63
2022-11-09T13:10:38.540Z,71.54
2022-11-09T13:13:26.283Z,71.52
2022-11-09T13:16:33.412Z,71.52
2022-11-09T13:19:54.267Z,71.48
2022-11-09T13:23:01.630Z,72.02
2022-11-09T13:25:53.007Z,71.44
2022-11-09T13:29:01.171Z,71.58
2022-11-09T13:32:03.599Z,71.52
2022-11-09T13:34:51.336Z,71.85
2022-11-09T13:37:54.660Z,71.65
2022-11-09T13:40:47.024Z,71.45
2022-11-09T13:43:34.740Z,71.35
2022-11-09T13:46:27.322Z,71.53
2022-11-09T13:49:47.469Z,71.87
2022-11-09T13:52:58.977Z,71.64
2022-11-09T13:55:45.581Z,71.67
2022-11-09T13:58:36.493Z,71.80
2022-11-09T14:01:34.343Z,71.89
2022-11-09T14:04:26.555Z,71.56
2022-11-09T14:07:21.210Z,71.91
2022-11-09T14:10:18.811Z,71.88
2022-11-09T14:13:20.406Z,71.99
2022-11-09T14:16:15.313Z,72.00
2022-11-09T14:19:14.015Z,72.15
2022-11-09T14:22:00.266Z,72.50
2022-11-09T14:24:48.191Z,71.88
2022-11-09T14:27:34.656Z,72.25
2022-11-09T14:30:23.397Z,72.69
2022-11-09T14:33:24.859Z,72.56
2022-11-09T14:36:12.809Z,72.62
2022-11-09T14:39:02.203Z,72.74
2022-11-09T14:41:50.617Z,72.24
2022-11-09T14:44:42.169Z,72.84
2022-11-09T14:47:31.506Z,72.29
2022-11-09T14:50:21.105Z,72.90
2022-11-09T14:53:07.980Z,72.90
2022-11-09T14:55:56.203Z,72.90
2022-11-09T14:58:45.393Z,73.08
2022-11-09T15:01:32.490Z,73.04
2022-11-09T15:04:21.310Z,73.80
2022-11-09T15:07:08.280Z,73.61
2022-11-09T15:09:58.711Z,73.67
2022-11-09T15:12:49.891Z,73.22
2022-11-09T15:15:38.690Z,73.14
2022-11-09T15:18:33.447Z,73.63
2022-11-09T15:21:34.453Z,73.62
2022-11-09T15:24:21.810Z,73.53
2022-11-09T15:27:30.625Z,73.31
2022-11-09T15:30:35.778Z,73.76
2022-11-09T15:33:26.659Z,73.79
2022-11-09T15:36:38.961Z,73.87
2022-11-09T15:39:27.315Z,73.37
2022-11-09T15:42:14.400Z,73.72
2022-11-09T15:45:01.137Z,74.01
2022-11-09T15:47:52.976Z,73.60
2022-11-09T15:50:40.930Z,74.35
2022-11-09T15:53:27.835Z,74.42
2022-11-09T15:56:18.487Z,73.94
2022-11-09T15:59:04.915Z,73.96
2022-11-09T16:01:51.181Z,74.30
2022-11-09T16:04:37.579Z,73.99
2022-11-09T16:07:25.282Z,74.12
2022-11-09T16:10:14.295Z,74.60
2022-11-09T16:13:00.468Z,74.65
2022-11-09T16:15:46.966Z,74.53
2022-11-09T16:18:34.093Z,74.47
2022-11-09T16:21:20.617Z,74.56
2022-11-09T16:24:09.472Z,74.37
2022-11-09T16:26:55.987Z,74.31
2022-11-09T16:29:42.468Z,74.59
2022-11-09T16:32:29.047Z,74.68
2022-11-09T16:35:26.600Z,74.88
2022-11-09T16:38:13.897Z,75.01
2022-11-09T16:41:04.569Z,75.05
2022-11-09T16:43:53.737Z,74.34
2022-11-09T16:46:42.857Z,74.76
2022-11-09T16:49:29.720Z,74.29
2022-11-09T16:52:16.198Z,74.56
2022-11-09T16:55:02.775Z,74.24
2022-11-09T16:57:50.638Z,74.77
2022-11-09T17:01:03.892Z,75.13
2022-11-09T17:03:43.483Z,74.50
2022-11-09T17:06:30.031Z,75.10
2022-11-09T17:09:17.443Z,75.04
2022-11-09T17:12:03.978Z,75.38
2022-11-09T17:14:51.583Z,75.51
2022-11-09T17:17:38.138Z,74.92
2022-11-09T17:20:24.724Z,75.37
2022-11-09T17:23:12.119Z,75.26
2022-11-09T17:26:00.263Z,75.11
2022-11-09T17:28:46.866Z,75.22
2022-11-09T17:31:34.495Z,75.23
2022-11-09T17:34:21.023Z,75.16
2022-11-09T17:37:07.468Z,75.74
2022-11-09T17:39:53.977Z,75.17
2022-11-09T17:42:40.418Z,75.12
2022-11-09T17:45:26.885Z,75.30
2022-11-09T17:48:14.504Z,75.32
2022-11-09T17:51:01.116Z,75.26
2022-11-09T17:53:47.786Z,75.89
2022-11-09T17:56:35.067Z,75.60
2022-11-09T17:59:21.428Z,75.40
2022-11-09T18:02:08.299Z,75.68
2022-11-09T18:04:56.191Z,75.94
2022-11-09T18:07:42.884Z,75.64
2022-11-09T18:10:29.357Z,75.92
2022-11-09T18:13:17.869Z,76.22
2022-11-09T18:16:06.958Z,75.59
2022-11-09T18:18:53.534Z,75.29
2022-11-09T18:21:41.442Z,75.33
2022-11-09T18:24:28.099Z,75.89
2022-11-09T18:27:14.308Z,75.43
2022-11-09T18:30:02.401Z,75.47
2022-11-09T18:32:49.191Z,75.50
2022-11-09T18:35:35.749Z,76.19
2022-11-09T18:38:28.983Z,75.78
2022-11-09T18:41:18.150Z,75.94
2022-11-09T18:44:04.516Z,76.09
2022-11-09T18:46:51.327Z,76.16
2022-11-09T18:49:37.462Z,76.48
2022-11-09T18:52:24.282Z,75.99
2022-11-09T18:55:12.353Z,76.45
2022-11-09T18:57:58.920Z,75.73
2022-11-09T19:00:46.075Z,76.45
2022-11-09T19:03:32.964Z,75.98
2022-11-09T19:06:21.501Z,75.61
2022-11-09T19:09:27.739Z,76.27
2022-11-09T19:12:15.682Z,76.17
2022-11-09T19:15:02.106Z,76.50
2022-11-09T19:17:49.946Z,76.18
2022-11-09T19:20:39.215Z,76.17
2022-11-09T19:23:32.853Z,75.85
2022-11-09T19:26:21.516Z,75.90
2022-11-09T19:29:10.390Z,76.21
2022-11-09T19:31:56.890Z,76.36
2022-11-09T19:34:43.613Z,75.77
2022-11-09T19:37:29.904Z,75.50
2022-11-09T19:40:16.923Z,75.86
2022-11-09T19:43:03.377Z,76.14
2022-11-09T19:45:51.328Z,76.04
2022-11-09T19:48:37.848Z,75.90
2022-11-09T19:51:24.861Z,75.97
2022-11-09T19:54:14.359Z,76.34
2022-11-09T19:57:00.780Z,75.84
2022-11-09T19:59:47.367Z,75.99
2022-11-09T20:02:35.214Z,75.59
2022-11-09T20:05:21.764Z,75.83
2022-11-09T20:08:08.228Z,75.94
2022-11-09T20:10:55.476Z,76.54
2022-11-09T20:13:42.030Z,76.74
2022-11-09T20:16:29.000Z,77.35
2022-11-09T20:19:16.551Z,77.39
2022-11-09T20:22:03.235Z,77.81
2022-11-09T20:24:49.709Z,79.21
2022-11-09T20:27:35.977Z,78.68
2022-11-09T20:30:22.701Z,78.98
2022-11-09T20:33:10.544Z,79.23
2022-11-09T20:35:58.327Z,79.52
2022-11-09T20:38:44.739Z,80.48
2022-11-09T20:41:31.381Z,79.64
2022-11-09T20:44:17.628Z,80.70
2022-11-09T20:47:04.704Z,80.10
2022-11-09T20:49:51.324Z,80.63
2022-11-09T20:52:39.136Z,80.76
2022-11-09T20:55:25.897Z,81.06
2022-11-09T20:58:13.589Z,81.32
2022-11-09T21:01:02.215Z,81.41
2022-11-09T21:03:50.726Z,82.07
2022-11-09T21:06:37.354Z,81.02
2022-11-09T21:09:25.347Z,81.03
2022-11-09T21:12:24.892Z,81.01
2022-11-09T21:15:14.021Z,80.15
2022-11-09T21:18:00.564Z,79.83
2022-11-09T21:20:47.059Z,80.04
2022-11-09T21:23:51.395Z,80.33
2022-11-09T21:26:56.841Z,81.14
2022-11-09T21:29:52.579Z,81.30
2022-11-09T21:32:39.383Z,82.42
2022-11-09T21:35:26.362Z,81.99
2022-11-09T21:38:12.927Z,82.18
2022-11-09T21:41:05.386Z,82.51
2022-11-09T21:43:55.680Z,82.53
2022-11-09T21:46:43.604Z,83.02
2022-11-09T21:49:30.672Z,83.11
2022-11-09T21:52:17.201Z,83.14
2022-11-09T21:55:03.339Z,83.69
2022-11-09T21:57:50.016Z,83.97
2022-11-09T22:00:38.059Z,83.97
2022-11-09T22:03:24.632Z,84.57
2022-11-09T22:06:11.479Z,84.08
2022-11-09T22:08:57.870Z,83.99
2022-11-09T22:12:02.632Z,83.28
2022-11-09T22:15:07.015Z,82.32
2022-11-09T22:17:55.828Z,82.47
2022-11-09T22:20:56.331Z,82.16
2022-11-09T22:23:42.558Z,82.01
2022-11-09T22:26:30.737Z,80.98
2022-11-09T22:29:17.322Z,80.36
2022-11-09T22:32:03.959Z,80.94
2022-11-09T22:34:51.786Z,80.10
2022-11-09T22:37:38.171Z,79.79
2022-11-09T22:40:24.710Z,79.46
2022-11-09T22:43:11.606Z,79.29
2022-11-09T22:46:03.692Z,79.39
2022-11-09T22:48:50.437Z,78.98
2022-11-09T22:51:38.278Z,79.16
2022-11-09T22:54:24.542Z,78.86
2022-11-09T22:57:11.411Z,78.42
2022-11-09T22:59:57.910Z,78.70
2022-11-09T23:02:44.382Z,78.86
2022-11-09T23:05:31.099Z,78.93
2022-11-09T23:08:18.857Z,78.56
2022-11-09T23:11:06.603Z,78.17
2022-11-09T23:13:53.868Z,78.19
2022-11-09T23:16:40.013Z,77.94
2022-11-09T23:19:25.361Z,77.80
2022-11-09T23:22:11.587Z,77.64
2022-11-09T23:25:16.983Z,78.13
2022-11-09T23:28:03.732Z,77.61
2022-11-09T23:30:49.915Z,77.67
2022-11-09T23:33:36.222Z,77.43
2022-11-09T23:36:23.582Z,77.35
2022-11-09T23:39:10.083Z,77.44
2022-11-09T23:41:57.852Z,77.21
2022-11-09T23:44:44.248Z,77.16
2022-11-09T23:47:30.910Z,77.71
2022-11-09T23:50:17.871Z,76.96
2022-11-09T23:53:04.266Z,77.77
2022-11-09T23:55:50.832Z,77.24
2022-11-09T23:58:39.428Z,77.32
